Time;durP1;ratioP1;P1;durP2;ratioP2;P2;SDS_P1;SDS_P2;PMS_P1;PMS_P2;Temp;Humidity;BMP_temperature;BMP_pressure;BME280_temperature;BME280_humidity;BME280_pressure;Samples;Min_cycle;Max_cycle;Signal;HPM_P1;HPM_P2
2023/06/30 00:02:22;;;;;;;6.57;1.20;;;;;;;14.94;52.69;100172.13;4999014;28;20053;-48
2023/06/30 00:04:50;;;;;;;2.75;0.98;;;;;;;14.88;53.20;100171.34;5004051;28;21702;-45
2023/06/30 00:07:20;;;;;;;1.88;0.75;;;;;;;14.83;53.30;100178.38;5005714;28;20046;-46
2023/06/30 00:09:48;;;;;;;2.03;0.73;;;;;;;14.76;53.32;100171.56;5004044;28;20046;-47
2023/06/30 00:12:15;;;;;;;1.77;0.73;;;;;;;14.71;53.52;100162.94;5004256;28;20167;-46
2023/06/30 00:14:41;;;;;;;1.90;0.70;;;;;;;14.68;53.63;100163.00;5004206;28;20044;-46
2023/06/30 00:17:08;;;;;;;2.90;0.90;;;;;;;14.63;53.88;100160.50;5007459;28;20107;-46
2023/06/30 00:19:35;;;;;;;4.72;1.15;;;;;;;14.59;54.27;100164.88;5007966;28;20053;-47
2023/06/30 00:22:02;;;;;;;3.70;0.93;;;;;;;14.56;54.51;100159.72;5005039;28;20054;-46
2023/06/30 00:24:29;;;;;;;2.08;0.70;;;;;;;14.52;54.54;100158.91;5007920;28;20045;-47
2023/06/30 00:26:55;;;;;;;2.40;0.95;;;;;;;14.48;54.66;100156.38;5008565;28;20045;-46
2023/06/30 00:29:22;;;;;;;3.63;0.93;;;;;;;14.45;54.70;100161.66;5008305;28;20049;-47
2023/06/30 00:31:49;;;;;;;2.80;0.98;;;;;;;14.40;54.60;100157.38;5007916;28;20049;-47
2023/06/30 00:34:16;;;;;;;1.95;0.73;;;;;;;14.38;54.10;100146.13;5004828;28;20042;-47
2023/06/30 00:36:42;;;;;;;4.10;1.13;;;;;;;14.35;54.81;100143.56;4990628;28;20545;-46
2023/06/30 00:39:09;;;;;;;2.50;1.13;;;;;;;14.33;54.82;100142.75;5009585;28;20050;-49
2023/06/30 00:41:35;;;;;;;3.78;0.90;;;;;;;14.30;55.07;100142.78;5008162;28;20064;-46
2023/06/30 00:44:02;;;;;;;2.45;0.77;;;;;;;14.28;55.57;100139.34;4991118;28;20050;-48
2023/06/30 00:46:29;;;;;;;1.70;0.75;;;;;;;14.23;54.78;100136.84;4981762;28;20054;-46
2023/06/30 00:48:56;;;;;;;5.32;1.20;;;;;;;14.22;55.16;100139.47;4995714;28;20070;-47
2023/06/30 00:51:23;;;;;;;4.88;1.00;;;;;;;14.19;55.25;100134.28;5007255;28;20464;-47
2023/06/30 00:53:49;;;;;;;3.80;1.08;;;;;;;14.17;55.85;100130.84;5006923;28;20042;-47
2023/06/30 00:56:16;;;;;;;4.47;0.82;;;;;;;14.13;55.47;100135.25;5009412;28;20057;-48
2023/06/30 00:58:43;;;;;;;2.42;1.20;;;;;;;14.12;55.05;100128.34;5007321;28;20181;-46
2023/06/30 01:03:52;;;;;;;3.75;1.00;;;;;;;14.07;55.25;100128.41;5045413;28;20391;-49
2023/06/30 01:06:33;;;;;;;4.93;1.35;;;;;;;13.99;55.75;100125.06;5019260;28;20049;-47
2023/06/30 01:09:05;;;;;;;2.95;1.15;;;;;;;13.99;55.55;100122.47;5018253;28;20073;-48
2023/06/30 01:11:34;;;;;;;2.70;0.90;;;;;;;13.97;55.97;100125.09;5020443;28;20512;-46
2023/06/30 01:14:02;;;;;;;2.40;1.30;;;;;;;13.94;56.49;100125.13;5019311;28;20053;-47
2023/06/30 01:16:31;;;;;;;4.15;1.33;;;;;;;13.93;56.67;100120.81;5017266;28;20065;-48
2023/06/30 01:19:06;;;;;;;3.50;1.25;;;;;;;13.90;55.65;100117.38;5022013;28;20128;-46
2023/06/30 01:21:33;;;;;;;4.00;1.48;;;;;;;13.86;56.28;100112.25;5019040;28;20053;-47
2023/06/30 01:24:07;;;;;;;2.42;0.80;;;;;;;13.83;56.55;100107.06;5018950;28;20067;-47
2023/06/30 01:26:34;;;;;;;3.92;1.35;;;;;;;13.81;56.82;100103.63;5021724;28;20072;-46
2023/06/30 01:29:03;;;;;;;2.58;0.70;;;;;;;13.80;57.23;100101.91;5040790;28;20548;-48
2023/06/30 01:31:32;;;;;;;2.60;1.33;;;;;;;13.78;56.63;100093.25;5022621;28;20045;-47
2023/06/30 01:34:00;;;;;;;3.72;1.83;;;;;;;13.75;56.19;100088.97;5029948;28;20056;-47
2023/06/30 01:36:27;;;;;;;3.88;1.25;;;;;;;13.73;57.05;100095.94;5016552;28;20042;-47
2023/06/30 01:38:53;;;;;;;4.40;1.17;;;;;;;13.72;56.80;100093.38;5021266;28;20074;-47
2023/06/30 01:41:20;;;;;;;4.55;1.15;;;;;;;13.69;56.63;100089.06;5026546;28;20046;-47
2023/06/30 01:43:49;;;;;;;3.85;1.30;;;;;;;13.67;56.37;100085.63;5024311;28;20052;-48
2023/06/30 01:46:17;;;;;;;1.85;0.95;;;;;;;13.65;57.25;100081.31;5035177;28;20409;-49
2023/06/30 01:48:44;;;;;;;2.75;1.10;;;;;;;13.60;57.20;100079.66;5044595;28;20076;-48
2023/06/30 01:51:13;;;;;;;4.50;1.90;;;;;;;13.58;57.65;100075.34;5041467;28;20053;-47
2023/06/30 01:53:40;;;;;;;3.22;1.05;;;;;;;13.55;56.98;100076.25;5042176;28;20052;-49
2023/06/30 01:56:06;;;;;;;2.90;1.08;;;;;;;13.51;57.47;100069.34;5041396;28;20508;-48
2023/06/30 01:58:33;;;;;;;3.30;1.52;;;;;;;13.50;57.04;100067.66;5038129;28;20045;-47
2023/06/30 02:01:01;;;;;;;6.63;1.30;;;;;;;13.47;57.03;100058.13;5043191;28;20060;-46
2023/06/30 02:03:29;;;;;;;3.78;1.15;;;;;;;13.46;57.03;100071.16;5045165;28;20053;-46
2023/06/30 02:05:57;;;;;;;6.13;1.52;;;;;;;13.43;57.60;100065.97;5040968;28;20056;-48
2023/06/30 02:08:23;;;;;;;4.38;1.13;;;;;;;13.42;57.07;100064.25;5038481;28;20672;-48
2023/06/30 02:10:50;;;;;;;3.53;1.48;;;;;;;13.39;57.12;100059.09;5041253;28;20134;-47
2023/06/30 02:13:16;;;;;;;3.63;1.65;;;;;;;13.35;57.59;100061.75;5030808;28;20111;-48
2023/06/30 02:15:43;;;;;;;4.72;1.50;;;;;;;13.32;57.17;100059.22;5018880;28;20049;-48
2023/06/30 02:18:13;;;;;;;3.08;1.63;;;;;;;13.28;58.04;100056.66;5020183;28;20488;-47
2023/06/30 02:20:40;;;;;;;3.45;2.05;;;;;;;13.24;57.87;100055.81;5017422;28;20046;-48
2023/06/30 02:23:06;;;;;;;3.67;1.10;;;;;;;13.21;57.26;100050.69;5027841;28;20048;-47
2023/06/30 02:25:33;;;;;;;3.47;1.15;;;;;;;13.18;58.64;100055.94;5005809;28;20096;-49
2023/06/30 02:28:00;;;;;;;4.38;1.42;;;;;;;13.14;57.91;100043.84;5008007;28;20045;-48
2023/06/30 02:30:26;;;;;;;11.75;1.83;;;;;;;13.11;58.99;100045.59;5013259;28;20045;-48
2023/06/30 02:32:53;;;;;;;5.65;1.67;;;;;;;13.09;57.80;100044.78;5022944;28;20645;-47
2023/06/30 02:35:20;;;;;;;6.85;1.55;;;;;;;13.08;59.15;100030.03;5004180;28;20057;-47
2023/06/30 02:37:46;;;;;;;5.47;1.42;;;;;;;13.08;58.18;100037.81;5004215;28;20053;-49
2023/06/30 02:40:13;;;;;;;3.78;1.50;;;;;;;13.08;59.27;100035.22;5000379;28;20501;-46
2023/06/30 02:42:40;;;;;;;4.75;1.73;;;;;;;13.07;59.49;100028.31;5005808;28;20049;-47
2023/06/30 02:45:07;;;;;;;3.38;1.70;;;;;;;13.07;58.90;100032.69;5000934;28;20586;-46
2023/06/30 02:47:33;;;;;;;4.65;2.00;;;;;;;13.05;58.62;100034.41;5003866;28;20042;-46
2023/06/30 02:50:00;;;;;;;3.67;1.83;;;;;;;13.03;59.15;100026.63;5003727;28;20081;-48
2023/06/30 02:52:27;;;;;;;2.50;1.15;;;;;;;13.01;58.71;100033.63;4997357;28;20042;-45
2023/06/30 02:54:53;;;;;;;5.10;1.35;;;;;;;13.00;60.13;100037.06;5000293;28;20317;-47
2023/06/30 02:57:21;;;;;;;5.13;1.90;;;;;;;12.98;60.00;100038.84;5002516;28;20038;-47
2023/06/30 02:59:48;;;;;;;3.05;1.55;;;;;;;12.96;59.71;100045.78;5007629;28;20050;-46
2023/06/30 03:02:14;;;;;;;3.78;1.38;;;;;;;12.96;58.75;100043.19;5021317;28;20056;-47
2023/06/30 03:04:42;;;;;;;2.67;1.45;;;;;;;12.96;59.60;100035.41;5002274;28;20079;-47
2023/06/30 03:07:08;;;;;;;5.82;1.33;;;;;;;12.95;58.96;100041.47;5004218;28;20057;-49
2023/06/30 03:09:35;;;;;;;5.57;1.38;;;;;;;12.93;59.42;100036.31;5014414;28;20064;-47
2023/06/30 03:12:02;;;;;;;3.13;1.27;;;;;;;12.93;60.09;100033.69;5017419;28;20074;-46
2023/06/30 03:14:28;;;;;;;2.22;1.15;;;;;;;12.92;59.30;100028.53;4999494;28;20061;-47
2023/06/30 03:16:55;;;;;;;4.03;1.48;;;;;;;12.91;59.19;100027.69;5005823;28;20661;-45
2023/06/30 03:19:22;;;;;;;6.00;1.50;;;;;;;12.90;60.17;100025.09;5010091;28;20065;-47
2023/06/30 03:21:48;;;;;;;2.25;1.10;;;;;;;12.90;59.58;100025.09;5004791;28;20652;-46
2023/06/30 03:24:15;;;;;;;3.53;1.15;;;;;;;12.89;60.21;100023.34;5003114;28;20490;-45
2023/06/30 03:26:41;;;;;;;2.30;1.10;;;;;;;12.88;59.55;100017.31;5002037;28;20046;-47
2023/06/30 03:29:08;;;;;;;4.72;1.25;;;;;;;12.88;59.16;100013.84;5005588;28;20057;-48
2023/06/30 03:31:35;;;;;;;4.05;1.40;;;;;;;12.88;60.27;100021.63;5003242;28;21021;-47
2023/06/30 03:34:03;;;;;;;3.15;1.02;;;;;;;12.87;59.63;100019.94;5005450;28;20041;-49
2023/06/30 03:36:30;;;;;;;5.95;1.33;;;;;;;12.84;60.74;100013.03;5011998;28;20045;-47
2023/06/30 03:38:57;;;;;;;3.10;1.05;;;;;;;12.83;60.06;100014.75;5018374;28;20076;-46
2023/06/30 03:41:23;;;;;;;3.70;0.93;;;;;;;12.82;60.47;100007.84;5006518;28;20584;-47
2023/06/30 03:43:50;;;;;;;4.70;1.63;;;;;;;12.80;59.82;100008.75;5007610;28;20046;-47
2023/06/30 03:46:17;;;;;;;3.80;1.73;;;;;;;12.77;60.68;100004.44;5002124;28;20042;-46
2023/06/30 03:48:43;;;;;;;2.17;1.00;;;;;;;12.77;60.38;100006.19;5006295;28;20050;-47
2023/06/30 03:51:10;;;;;;;2.10;1.15;;;;;;;12.75;60.07;100000.13;5005370;28;20057;-47
2023/06/30 03:53:37;;;;;;;3.13;1.38;;;;;;;12.72;60.36;99995.84;5006606;28;20054;-49
2023/06/30 03:56:04;;;;;;;2.88;1.00;;;;;;;12.71;60.98;99994.13;5023472;28;20052;-47
2023/06/30 03:58:31;;;;;;;4.15;1.17;;;;;;;12.69;59.81;99990.69;5005889;28;20057;-50
2023/06/30 04:00:57;;;;;;;3.47;1.27;;;;;;;12.66;60.77;99991.59;5001582;28;20045;-47
2023/06/30 04:03:25;;;;;;;4.47;0.80;;;;;;;12.66;60.76;99993.34;5003114;28;20060;-46
2023/06/30 04:05:54;;;;;;;2.75;1.25;;;;;;;12.64;61.24;99987.28;5005002;28;20050;-45
2023/06/30 04:08:20;;;;;;;4.50;1.25;;;;;;;12.64;60.76;99993.34;5014885;28;20049;-46
2023/06/30 04:10:48;;;;;;;3.08;1.05;;;;;;;12.64;60.31;99984.69;4996059;28;20046;-49
2023/06/30 04:13:14;;;;;;;2.70;1.45;;;;;;;12.63;60.62;99980.38;5003135;28;20037;-49
2023/06/30 04:15:41;;;;;;;3.08;1.25;;;;;;;12.63;60.38;99980.38;5003810;28;20081;-47
2023/06/30 04:18:08;;;;;;;4.47;1.20;;;;;;;12.64;60.76;99976.91;5004900;28;20037;-47
2023/06/30 04:20:35;;;;;;;1.80;1.25;;;;;;;12.64;61.50;99969.97;5026622;28;20064;-48
2023/06/30 04:23:02;;;;;;;4.32;1.75;;;;;;;12.64;60.75;99966.50;5023240;28;20049;-47
2023/06/30 04:25:29;;;;;;;2.78;1.38;;;;;;;12.66;61.75;99970.78;5017241;28;20056;-46
2023/06/30 04:27:56;;;;;;;4.40;1.40;;;;;;;12.67;60.82;99966.47;5012652;28;20543;-49
2023/06/30 04:30:22;;;;;;;2.60;1.25;;;;;;;12.70;60.63;99966.44;5022487;28;20053;-51
2023/06/30 04:32:49;;;;;;;4.53;1.45;;;;;;;12.72;60.77;99969.84;5025228;28;20056;-50
2023/06/30 04:35:16;;;;;;;3.60;1.10;;;;;;;12.75;61.64;99962.03;5025660;28;20057;-50
2023/06/30 04:37:44;;;;;;;4.03;0.98;;;;;;;12.78;61.74;99964.59;5020049;28;20141;-48
2023/06/30 04:40:10;;;;;;;3.20;1.00;;;;;;;12.82;60.26;99966.25;5025767;28;20382;-49
2023/06/30 04:42:37;;;;;;;2.72;1.13;;;;;;;12.84;60.64;99972.28;5025511;28;20408;-47
2023/06/30 04:45:05;;;;;;;7.95;1.83;;;;;;;12.89;60.68;99976.56;5024573;28;20045;-48
2023/06/30 04:47:31;;;;;;;2.17;1.40;;;;;;;12.93;61.73;99968.72;5025411;28;20045;-50
2023/06/30 04:49:58;;;;;;;3.72;1.50;;;;;;;12.97;60.75;99966.94;5024725;28;20059;-48
2023/06/30 04:52:25;;;;;;;2.67;1.27;;;;;;;13.00;61.26;99966.88;5021698;28;20059;-47
2023/06/30 04:54:51;;;;;;;2.00;1.25;;;;;;;13.04;61.72;99965.09;5025018;28;20053;-50
2023/06/30 04:57:18;;;;;;;2.40;1.38;;;;;;;13.07;60.92;99965.91;5022276;28;20046;-46
2023/06/30 04:59:44;;;;;;;1.83;0.82;;;;;;;13.10;61.28;99954.59;5025089;28;20057;-48
2023/06/30 05:02:11;;;;;;;4.28;1.48;;;;;;;13.11;60.84;99949.38;5020163;28;20134;-48
2023/06/30 05:04:38;;;;;;;3.30;1.02;;;;;;;13.15;60.40;99946.75;5025258;28;20050;-47
2023/06/30 05:07:05;;;;;;;4.18;1.50;;;;;;;13.18;60.50;99946.69;5022272;28;20059;-46
2023/06/30 05:09:31;;;;;;;2.90;1.40;;;;;;;13.19;60.78;99936.28;5020378;28;20083;-46
2023/06/30 05:11:58;;;;;;;2.42;1.30;;;;;;;13.24;60.91;99941.38;5017882;28;20049;-45
2023/06/30 05:14:24;;;;;;;2.03;1.35;;;;;;;13.26;60.88;99937.03;5020444;28;20583;-47
2023/06/30 05:16:51;;;;;;;1.98;0.90;;;;;;;13.30;60.77;99936.09;5019985;28;20057;-47
2023/06/30 05:19:18;;;;;;;3.42;1.23;;;;;;;13.34;61.04;99942.97;5019317;28;20045;-46
2023/06/30 05:21:44;;;;;;;2.00;0.80;;;;;;;13.40;60.79;99935.97;5022028;28;20073;-46
2023/06/30 05:24:11;;;;;;;3.20;1.25;;;;;;;13.43;61.44;99933.28;5022311;28;20077;-48
2023/06/30 05:26:39;;;;;;;2.42;1.02;;;;;;;13.46;60.76;99935.84;5021524;28;20460;-47
2023/06/30 05:29:06;;;;;;;6.07;1.15;;;;;;;13.49;60.74;99931.50;5023277;28;20453;-46
2023/06/30 05:31:33;;;;;;;5.45;1.58;;;;;;;13.54;61.60;99931.41;5019959;28;20064;-46
2023/06/30 05:34:00;;;;;;;2.25;1.17;;;;;;;13.57;61.32;99926.16;5023525;28;20088;-48
2023/06/30 05:36:28;;;;;;;7.10;1.17;;;;;;;13.62;60.90;99916.53;5021557;28;20130;-47
2023/06/30 05:38:55;;;;;;;7.50;1.13;;;;;;;13.67;60.89;99912.97;5020554;28;20095;-46
2023/06/30 05:41:21;;;;;;;1.83;1.13;;;;;;;13.71;61.49;99904.25;5022587;28;20103;-46
2023/06/30 05:43:48;;;;;;;2.25;1.27;;;;;;;13.76;61.24;99897.22;5021845;28;20050;-48
2023/06/30 05:46:15;;;;;;;4.90;0.93;;;;;;;13.81;61.59;99895.38;5020224;28;20045;-47
2023/06/30 05:48:42;;;;;;;4.13;1.42;;;;;;;13.86;61.49;99898.75;5023796;28;20053;-46
2023/06/30 05:51:09;;;;;;;3.42;1.17;;;;;;;13.92;61.26;99897.78;5021630;28;20049;-49
2023/06/30 05:53:35;;;;;;;4.28;1.20;;;;;;;13.97;60.99;99893.34;5024819;28;20084;-46
2023/06/30 05:56:02;;;;;;;2.08;1.05;;;;;;;14.03;60.79;99892.38;5025437;28;20160;-51
2023/06/30 05:58:29;;;;;;;4.35;1.25;;;;;;;14.10;61.52;99893.09;5023328;28;20042;-47
2023/06/30 06:00:56;;;;;;;2.63;1.13;;;;;;;14.17;60.81;99891.22;5027984;28;20049;-48
2023/06/30 06:03:23;;;;;;;2.97;1.27;;;;;;;14.24;61.25;99882.41;5030194;28;20049;-47
2023/06/30 06:05:50;;;;;;;2.47;1.33;;;;;;;14.30;61.29;99882.28;5016729;28;20460;-46
2023/06/30 06:08:17;;;;;;;4.75;1.08;;;;;;;14.36;61.13;99874.31;5004422;28;20123;-46
2023/06/30 06:10:46;;;;;;;2.08;0.88;;;;;;;14.44;60.84;99870.69;5002944;28;20107;-51
2023/06/30 06:13:31;;;;;;;2.28;0.60;;;;;;;14.47;61.28;99873.25;5014106;28;20053;-48
2023/06/30 06:15:57;;;;;;;1.23;0.82;;;;;;;14.56;60.74;99883.44;5010780;28;20581;-46
2023/06/30 06:18:24;;;;;;;4.97;1.48;;;;;;;14.62;61.04;99878.13;4997292;28;20049;-48
2023/06/30 06:20:51;;;;;;;3.55;0.63;;;;;;;14.71;61.29;99878.78;4997348;28;20062;-48
2023/06/30 06:23:17;;;;;;;2.00;1.10;;;;;;;14.81;61.33;99872.53;4998717;28;20103;-47
2023/06/30 06:25:44;;;;;;;4.03;0.90;;;;;;;14.92;61.38;99869.66;4997865;28;20046;-47
2023/06/30 06:28:11;;;;;;;3.30;1.25;;;;;;;14.99;61.02;99866.00;5013806;28;20057;-47
2023/06/30 06:30:37;;;;;;;2.95;0.98;;;;;;;15.07;61.76;99871.06;5010845;28;20046;-47
2023/06/30 06:33:04;;;;;;;4.78;0.90;;;;;;;15.15;61.44;99871.72;5006007;28;20049;-51
2023/06/30 06:35:32;;;;;;;4.22;0.85;;;;;;;15.26;61.26;99878.41;5020997;28;20067;-50
2023/06/30 06:38:00;;;;;;;3.50;0.90;;;;;;;15.33;61.12;99874.75;5016910;28;20058;-46
2023/06/30 06:40:28;;;;;;;3.40;1.13;;;;;;;15.40;60.82;99876.31;5025749;28;20567;-46
2023/06/30 06:42:56;;;;;;;3.50;1.63;;;;;;;15.47;61.38;99874.38;5022684;28;20099;-47
2023/06/30 06:45:23;;;;;;;2.88;1.10;;;;;;;15.58;61.36;99873.25;5021654;28;20045;-47
2023/06/30 06:53:32;;;;;;;4.13;1.10;;;;;;;15.85;60.54;99871.66;5113147;27;20405;-46
2023/06/30 06:56:00;;;;;;;3.58;1.00;;;;;;;15.91;60.37;99865.41;5047592;27;20447;-48
2023/06/30 06:58:30;;;;;;;1.95;0.90;;;;;;;16.01;60.36;99871.28;5052092;28;20060;-49
2023/06/30 07:00:56;;;;;;;2.75;0.90;;;;;;;16.11;61.01;99864.88;5048985;28;20091;-47
2023/06/30 07:03:24;;;;;;;3.67;1.48;;;;;;;16.22;60.55;99866.31;5053349;28;20135;-50
2023/06/30 07:05:51;;;;;;;3.83;0.95;;;;;;;16.35;60.77;99866.81;5073497;28;20041;-48
2023/06/30 07:08:18;;;;;;;3.20;0.80;;;;;;;16.44;60.80;99869.16;5075308;28;20491;-48
2023/06/30 07:10:46;;;;;;;3.50;1.17;;;;;;;16.52;59.54;99871.53;5075908;28;20052;-50
2023/06/30 07:13:17;;;;;;;2.80;1.20;;;;;;;16.56;59.96;99873.16;5073003;28;20052;-48
2023/06/30 07:15:47;;;;;;;2.67;1.20;;;;;;;16.60;59.70;99873.91;5074070;28;20119;-50
2023/06/30 07:18:18;;;;;;;3.25;1.00;;;;;;;16.64;59.99;99865.94;5061221;28;20090;-47
2023/06/30 07:20:47;;;;;;;3.42;1.40;;;;;;;16.74;59.55;99870.88;5070821;28;20651;-47
2023/06/30 07:23:14;;;;;;;2.92;0.80;;;;;;;16.82;59.94;99868.91;5073779;28;20063;-48
2023/06/30 07:25:42;;;;;;;1.90;0.82;;;;;;;16.93;59.39;99860.69;5076220;28;20060;-49
2023/06/30 07:28:14;;;;;;;4.43;0.98;;;;;;;17.05;60.17;99859.41;5078959;28;20128;-49
2023/06/30 07:30:41;;;;;;;2.10;1.27;;;;;;;17.14;59.46;99860.91;5074777;28;20044;-47
2023/06/30 07:33:12;;;;;;;4.65;1.20;;;;;;;17.28;59.26;99860.44;5050624;28;20132;-48
2023/06/30 07:35:39;;;;;;;2.75;1.35;;;;;;;17.37;59.45;99849.69;5053726;28;20059;-48
2023/06/30 07:38:06;;;;;;;6.07;1.75;;;;;;;17.47;59.01;99851.06;5057965;28;20072;-48
2023/06/30 07:40:32;;;;;;;3.30;1.20;;;;;;;17.56;58.65;99846.44;5057522;28;20063;-48
2023/06/30 07:43:19;;;;;;;3.63;1.13;;;;;;;17.63;59.07;99840.03;5063007;28;20084;-45
2023/06/30 07:45:46;;;;;;;4.80;1.30;;;;;;;17.69;58.46;99839.84;5058087;28;20071;-44
2023/06/30 07:48:13;;;;;;;4.85;1.52;;;;;;;17.73;59.09;99846.69;5056873;28;20045;-44
2023/06/30 07:50:40;;;;;;;4.55;1.55;;;;;;;17.77;58.43;99841.34;5063097;28;20045;-46
2023/06/30 07:53:21;;;;;;;4.40;1.42;;;;;;;17.76;59.14;99842.25;5055948;28;20525;-45
2023/06/30 07:55:47;;;;;;;4.90;1.38;;;;;;;17.71;58.37;99845.91;5053881;28;20140;-48
2023/06/30 07:58:14;;;;;;;5.15;1.60;;;;;;;17.69;58.44;99839.84;5056947;28;20059;-46
2023/06/30 08:00:41;;;;;;;5.90;1.52;;;;;;;17.66;58.34;99819.00;5055856;28;20044;-47
2023/06/30 08:03:07;;;;;;;4.45;1.35;;;;;;;17.64;58.81;99820.81;5052246;28;20052;-47
2023/06/30 08:05:34;;;;;;;12.95;1.50;;;;;;;17.65;58.72;99822.53;5044984;28;20044;-48
2023/06/30 08:08:01;;;;;;;3.55;1.20;;;;;;;17.63;58.63;99819.09;5020452;28;20088;-44
2023/06/30 08:10:28;;;;;;;7.13;1.23;;;;;;;17.62;59.58;99812.16;5050402;28;20083;-49
2023/06/30 08:12:55;;;;;;;5.60;1.55;;;;;;;17.60;59.55;99809.59;5063059;28;20044;-46
2023/06/30 08:15:24;;;;;;;4.18;1.63;;;;;;;17.63;59.11;99808.63;5066924;28;20059;-47
2023/06/30 08:17:51;;;;;;;8.65;1.85;;;;;;;17.64;59.63;99804.25;5062037;28;20060;-47
2023/06/30 08:20:23;;;;;;;9.57;1.60;;;;;;;17.63;59.25;99808.63;5062712;28;20056;-47
2023/06/30 08:22:50;;;;;;;3.15;1.40;;;;;;;17.62;59.79;99801.69;5062915;28;20048;-49
2023/06/30 08:25:21;;;;;;;3.65;1.30;;;;;;;17.62;60.03;99791.22;5056357;28;20047;-45
2023/06/30 08:27:48;;;;;;;5.80;1.70;;;;;;;17.63;60.40;99792.91;5066760;28;20045;-50
2023/06/30 08:30:15;;;;;;;7.38;1.67;;;;;;;17.68;60.22;99792.75;5067656;28;20052;-46
2023/06/30 08:32:42;;;;;;;2.65;1.17;;;;;;;17.72;60.25;99795.22;5063171;28;20123;-46
2023/06/30 08:35:09;;;;;;;4.43;1.30;;;;;;;17.76;60.20;99795.09;5066877;28;20056;-46
2023/06/30 08:37:37;;;;;;;3.63;1.30;;;;;;;17.81;60.54;99791.41;5064413;28;20044;-47
2023/06/30 08:40:05;;;;;;;4.57;1.23;;;;;;;17.87;60.24;99785.09;5060271;28;20056;-47
2023/06/30 08:42:36;;;;;;;5.70;1.92;;;;;;;17.94;60.40;99783.91;5059379;28;20052;-48
2023/06/30 08:45:03;;;;;;;6.57;1.35;;;;;;;18.05;60.66;99785.28;5062152;28;20048;-49
2023/06/30 08:47:32;;;;;;;8.32;1.17;;;;;;;18.09;59.93;99779.03;5059591;28;20385;-45
2023/06/30 08:50:00;;;;;;;2.65;1.20;;;;;;;18.08;60.02;99775.56;5062479;28;20070;-46
2023/06/30 08:52:28;;;;;;;4.22;1.67;;;;;;;18.09;60.38;99768.56;5063527;28;20056;-46
2023/06/30 08:54:54;;;;;;;4.80;1.50;;;;;;;18.14;59.82;99768.38;5058042;28;20381;-47
2023/06/30 08:57:22;;;;;;;5.68;1.48;;;;;;;18.20;60.46;99776.84;5067291;28;20048;-46
2023/06/30 08:59:49;;;;;;;4.60;1.50;;;;;;;18.28;60.71;99771.34;5065669;28;20618;-48
2023/06/30 09:02:17;;;;;;;5.18;1.30;;;;;;;18.40;60.14;99772.59;5061439;28;20037;-51
2023/06/30 09:04:44;;;;;;;7.03;1.52;;;;;;;18.56;60.17;99771.97;5063761;28;20041;-48
2023/06/30 09:07:25;;;;;;;3.78;1.35;;;;;;;18.69;60.29;99769.72;5059600;28;20071;-46
2023/06/30 09:10:01;;;;;;;7.95;1.35;;;;;;;18.74;59.64;99766.00;5056942;28;20051;-47
2023/06/30 09:12:29;;;;;;;4.30;1.17;;;;;;;18.86;59.68;99755.91;5057146;28;20051;-48
2023/06/30 09:14:59;;;;;;;10.32;1.77;;;;;;;18.99;59.66;99748.38;5065470;28;20123;-48
2023/06/30 09:17:26;;;;;;;3.38;0.80;;;;;;;19.05;59.20;99750.72;5060904;28;20060;-46
2023/06/30 09:19:52;;;;;;;4.70;1.20;;;;;;;19.13;59.12;99739.91;5058432;28;20550;-47
2023/06/30 09:22:20;;;;;;;7.53;1.35;;;;;;;19.21;59.19;99743.06;5063480;28;20044;-47
2023/06/30 09:28:13;;;;;;;6.43;2.03;;;;;;;19.67;59.47;99726.16;5087434;27;20404;-46
2023/06/30 09:30:44;;;;;;;3.88;1.33;;;;;;;19.84;59.61;99725.38;5077829;28;20676;-47
2023/06/30 09:33:13;;;;;;;7.82;2.42;;;;;;;20.09;59.09;99718.16;5077213;28;20060;-46
2023/06/30 09:35:42;;;;;;;7.68;3.83;;;;;;;20.42;58.43;99717.44;5077648;28;20096;-47
2023/06/30 09:40:48;;;;;;;5.25;1.85;;;;;;;20.90;57.31;99703.69;5022978;27;20410;-47
2023/06/30 09:43:16;;;;;;;;;;;;;;;20.88;56.60;99700.25;5020427;28;20038;-46
2023/06/30 09:45:47;;;;;;;6.55;1.50;;;;;;;21.01;56.71;99701.34;5047854;28;19921;-47
2023/06/30 09:48:15;;;;;;;5.07;1.27;;;;;;;21.14;56.71;99693.66;5065290;28;20497;-47
2023/06/30 09:50:42;;;;;;;3.40;1.33;;;;;;;21.30;56.50;99696.34;5036547;28;20054;-48
2023/06/30 09:53:09;;;;;;;6.47;1.52;;;;;;;21.45;55.90;99688.56;5033714;28;20444;-47
2023/06/30 09:55:47;;;;;;;7.68;1.40;;;;;;;21.61;55.55;99695.63;5015216;28;20060;-46
2023/06/30 09:58:16;;;;;;;3.13;1.55;;;;;;;21.76;54.77;99692.16;5013692;28;20077;-47
2023/06/30 10:00:43;;;;;;;2.13;0.80;;;;;;;21.95;54.77;99680.56;5025082;28;20057;-46
2023/06/30 10:03:10;;;;;;;5.82;1.38;;;;;;;21.98;54.51;99680.41;5037098;28;20540;-47
2023/06/30 10:05:37;;;;;;;4.95;1.50;;;;;;;22.00;54.26;99691.72;5032054;28;20080;-47
2023/06/30 10:08:05;;;;;;;6.43;1.35;;;;;;;22.09;54.25;99685.91;5035842;28;20053;-48
2023/06/30 10:10:32;;;;;;;5.88;1.50;;;;;;;22.22;53.91;99687.84;5036690;28;20526;-47
2023/06/30 10:12:59;;;;;;;4.57;0.90;;;;;;;22.29;53.38;99676.00;5037147;28;20084;-50
2023/06/30 10:15:26;;;;;;;5.05;1.15;;;;;;;22.40;53.20;99669.28;5032514;28;20050;-47
2023/06/30 10:17:55;;;;;;;6.18;1.42;;;;;;;22.53;53.25;99664.94;5038658;28;20671;-48
2023/06/30 10:20:22;;;;;;;3.90;0.88;;;;;;;22.52;51.66;99668.53;5035653;28;20049;-48
2023/06/30 10:23:08;;;;;;;4.53;1.50;;;;;;;22.40;51.46;99658.72;5038621;28;20136;-47
2023/06/30 10:25:37;;;;;;;5.50;1.10;;;;;;;22.37;51.74;99659.75;5031319;28;20053;-48
2023/06/30 10:28:06;;;;;;;6.97;1.60;;;;;;;22.26;51.43;99654.25;5037225;28;20053;-47
2023/06/30 10:30:34;;;;;;;4.93;1.40;;;;;;;22.11;51.24;99648.06;5033785;28;20503;-46
2023/06/30 10:33:01;;;;;;;7.35;2.00;;;;;;;22.11;52.13;99653.31;5034013;28;20409;-48
2023/06/30 10:35:30;;;;;;;8.30;1.58;;;;;;;22.23;52.60;99647.38;5034353;28;20053;-48
2023/06/30 10:37:58;;;;;;;4.60;1.60;;;;;;;22.37;52.54;99643.06;5036434;28;20053;-52
2023/06/30 10:43:05;;;;;;;7.03;1.73;;;;;;;22.45;51.52;99630.25;5064157;28;20424;-51
2023/06/30 10:45:34;;;;;;;5.05;1.33;;;;;;;22.36;51.57;99625.53;5046804;28;20049;-48
2023/06/30 10:48:09;;;;;;;9.18;1.80;;;;;;;22.37;52.41;99624.59;5059582;28;20560;-48
2023/06/30 10:50:41;;;;;;;10.38;2.47;;;;;;;22.56;52.30;99616.47;5064635;28;20053;-51
2023/06/30 10:53:08;;;;;;;6.03;1.65;;;;;;;22.63;51.35;99622.22;5059221;28;20515;-52
2023/06/30 10:55:35;;;;;;;4.13;1.45;;;;;;;22.69;51.00;99611.28;5046036;28;20049;-50
2023/06/30 10:58:04;;;;;;;6.50;2.22;;;;;;;22.84;50.95;99610.34;5006460;28;20045;-52
2023/06/30 11:00:33;;;;;;;8.27;2.20;;;;;;;22.93;50.57;99608.13;4997995;28;20053;-48
2023/06/30 11:03:04;;;;;;;4.82;1.73;;;;;;;23.13;51.00;99612.13;5003847;28;20050;-47
2023/06/30 11:05:33;;;;;;;14.25;1.77;;;;;;;23.27;50.18;99607.78;5002720;28;20513;-48
2023/06/30 11:10:45;;;;;;;4.70;1.65;;;;;;;23.39;49.58;99592.97;5076387;27;20409;-50
2023/06/30 11:13:12;;;;;;;3.42;1.60;;;;;;;23.48;49.64;99602.97;5019940;28;20118;-47
2023/06/30 11:18:21;;;;;;;7.30;3.28;;;;;;;23.42;49.21;99592.78;5026457;27;20402;-48
2023/06/30 11:21:08;;;;;;;4.03;1.70;;;;;;;23.54;49.42;99597.25;4990676;28;20767;-52
2023/06/30 11:23:37;;;;;;;4.43;2.33;;;;;;;23.55;49.00;99593.69;5003590;28;20050;-50
2023/06/30 11:26:16;;;;;;;5.43;2.83;;;;;;;23.44;48.06;99575.03;4997018;28;20054;-50
2023/06/30 11:28:49;;;;;;;4.00;3.10;;;;;;;23.44;49.46;99580.31;5009592;28;20530;-51
2023/06/30 11:31:16;;;;;;;2.78;1.45;;;;;;;23.52;49.09;99582.47;5013129;28;20412;-51
2023/06/30 11:33:45;;;;;;;7.35;2.08;;;;;;;23.70;50.15;99583.06;5032240;28;20056;-50
2023/06/30 11:36:17;;;;;;;8.90;3.38;;;;;;;23.86;49.50;99578.47;5031877;28;20048;-51
2023/06/30 11:38:45;;;;;;;3.80;1.98;;;;;;;23.96;49.20;99567.28;5044540;28;20057;-49
2023/06/30 11:41:17;;;;;;;4.97;2.30;;;;;;;23.95;49.11;99563.75;5048655;28;20492;-54
2023/06/30 11:43:48;;;;;;;5.15;2.53;;;;;;;23.92;48.96;99568.44;5031505;28;20052;-54
2023/06/30 11:46:15;;;;;;;4.18;2.05;;;;;;;23.77;48.81;99549.16;5045489;28;20507;-52
2023/06/30 11:48:42;;;;;;;8.00;2.58;;;;;;;23.57;48.74;99575.94;5047861;28;20847;-54
2023/06/30 11:51:11;;;;;;;2.70;2.20;;;;;;;23.38;49.60;99571.00;5050958;28;20060;-53
2023/06/30 11:53:42;;;;;;;5.80;2.72;;;;;;;23.15;49.73;99575.06;5049249;28;20139;-55
2023/06/30 11:56:09;;;;;;;5.35;1.45;;;;;;;23.00;49.92;99572.44;5047663;28;20330;-52
2023/06/30 11:58:36;;;;;;;4.88;2.03;;;;;;;22.80;50.52;99569.25;5046720;28;20060;-51